<?xml version="1.0" encoding="UTF-8" standalone="no" ?>
<gpx xmlns="http://www.topografix.com/GPX/1/1" xmlns:xsi="http://www.w3.org/2001/XMLSchema-instance" xsi:schemaLocation="http://www.topografix.com/GPX/1/1 http://www.topografix.com/GPX/1/1/gpx.xsd" version="1.1" creator="VisuGPX - https://www.visugpx.com">
  <metadata>
    <name>Saint-Martinien, Variante</name>
    <desc><![CDATA[Variante d\'une balade FFRP
seulement 8% de goudron]]></desc>
  </metadata>
  <trk>
    <name><![CDATA[2014-12-24 Saint-Martinien 001]]></name>
    <trkseg>
      <trkpt lat="46.33446" lon="2.47902">
        <ele>394.76</ele>
        <time>2014-12-24T12:12:08Z</time>
      </trkpt>
      <trkpt lat="46.33448" lon="2.47904">
        <ele>394.76</ele>
        <time>2014-12-24T12:13:09Z</time>
      </trkpt>
      <trkpt lat="46.33475" lon="2.47898">
        <ele>393.8</ele>
        <time>2014-12-24T12:13:34Z</time>
      </trkpt>
      <trkpt lat="46.33489" lon="2.47899">
        <ele>393.8</ele>
        <time>2014-12-24T12:13:45Z</time>
      </trkpt>
      <trkpt lat="46.33504" lon="2.47899">
        <ele>393.8</ele>
        <time>2014-12-24T12:13:57Z</time>
      </trkpt>
      <trkpt lat="46.33516" lon="2.479">
        <ele>392.84</ele>
        <time>2014-12-24T12:14:07Z</time>
      </trkpt>
      <trkpt lat="46.33533" lon="2.47898">
        <ele>392.84</ele>
        <time>2014-12-24T12:14:20Z</time>
      </trkpt>
      <trkpt lat="46.33541" lon="2.47897">
        <ele>392.36</ele>
        <time>2014-12-24T12:14:41Z</time>
      </trkpt>
      <trkpt lat="46.33565" lon="2.47893">
        <ele>392.36</ele>
        <time>2014-12-24T12:15:03Z</time>
      </trkpt>
      <trkpt lat="46.33583" lon="2.4789">
        <ele>391.87</ele>
        <time>2014-12-24T12:15:16Z</time>
      </trkpt>
      <trkpt lat="46.33603" lon="2.47885">
        <ele>391.87</ele>
        <time>2014-12-24T12:15:31Z</time>
      </trkpt>
      <trkpt lat="46.33625" lon="2.47881">
        <ele>391.39</ele>
        <time>2014-12-24T12:15:47Z</time>
      </trkpt>
      <trkpt lat="46.33641" lon="2.47877">
        <ele>391.39</ele>
        <time>2014-12-24T12:15:59Z</time>
      </trkpt>
      <trkpt lat="46.33653" lon="2.47877">
        <ele>391.39</ele>
        <time>2014-12-24T12:16:08Z</time>
      </trkpt>
      <trkpt lat="46.33675" lon="2.47878">
        <ele>391.39</ele>
        <time>2014-12-24T12:16:23Z</time>
      </trkpt>
      <trkpt lat="46.33691" lon="2.47881">
        <ele>391.39</ele>
        <time>2014-12-24T12:16:35Z</time>
      </trkpt>
      <trkpt lat="46.3371" lon="2.47881">
        <ele>391.39</ele>
        <time>2014-12-24T12:16:48Z</time>
      </trkpt>
      <trkpt lat="46.33726" lon="2.4788">
        <ele>391.39</ele>
        <time>2014-12-24T12:17:01Z</time>
      </trkpt>
      <trkpt lat="46.33746" lon="2.47876">
        <ele>391.39</ele>
        <time>2014-12-24T12:17:14Z</time>
      </trkpt>
      <trkpt lat="46.33763" lon="2.47873">
        <ele>390.91</ele>
        <time>2014-12-24T12:17:27Z</time>
      </trkpt>
      <trkpt lat="46.33779" lon="2.47867">
        <ele>390.91</ele>
        <time>2014-12-24T12:17:39Z</time>
      </trkpt>
      <trkpt lat="46.33799" lon="2.47864">
        <ele>390.91</ele>
        <time>2014-12-24T12:17:53Z</time>
      </trkpt>
      <trkpt lat="46.33819" lon="2.47862">
        <ele>390.91</ele>
        <time>2014-12-24T12:18:07Z</time>
      </trkpt>
      <trkpt lat="46.33843" lon="2.47862">
        <ele>390.91</ele>
        <time>2014-12-24T12:18:24Z</time>
      </trkpt>
      <trkpt lat="46.33853" lon="2.47862">
        <ele>391.87</ele>
        <time>2014-12-24T12:18:33Z</time>
      </trkpt>
      <trkpt lat="46.33864" lon="2.47862">
        <ele>391.87</ele>
        <time>2014-12-24T12:18:43Z</time>
      </trkpt>
      <trkpt lat="46.3388" lon="2.47864">
        <ele>392.36</ele>
        <time>2014-12-24T12:18:54Z</time>
      </trkpt>
      <trkpt lat="46.33901" lon="2.47865">
        <ele>392.84</ele>
        <time>2014-12-24T12:19:09Z</time>
      </trkpt>
      <trkpt lat="46.33918" lon="2.47866">
        <ele>393.32</ele>
        <time>2014-12-24T12:19:23Z</time>
      </trkpt>
      <trkpt lat="46.33938" lon="2.47865">
        <ele>393.8</ele>
        <time>2014-12-24T12:19:38Z</time>
      </trkpt>
      <trkpt lat="46.33964" lon="2.47866">
        <ele>394.28</ele>
        <time>2014-12-24T12:19:57Z</time>
      </trkpt>
      <trkpt lat="46.33979" lon="2.47865">
        <ele>395.24</ele>
        <time>2014-12-24T12:20:09Z</time>
      </trkpt>
      <trkpt lat="46.33999" lon="2.47864">
        <ele>396.2</ele>
        <time>2014-12-24T12:20:24Z</time>
      </trkpt>
      <trkpt lat="46.34023" lon="2.47859">
        <ele>397.16</ele>
        <time>2014-12-24T12:20:40Z</time>
      </trkpt>
      <trkpt lat="46.34042" lon="2.47855">
        <ele>398.6</ele>
        <time>2014-12-24T12:20:55Z</time>
      </trkpt>
      <trkpt lat="46.34065" lon="2.47852">
        <ele>400.05</ele>
        <time>2014-12-24T12:21:11Z</time>
      </trkpt>
      <trkpt lat="46.34082" lon="2.47853">
        <ele>401.01</ele>
        <time>2014-12-24T12:21:24Z</time>
      </trkpt>
      <trkpt lat="46.34101" lon="2.47854">
        <ele>402.45</ele>
        <time>2014-12-24T12:21:38Z</time>
      </trkpt>
      <trkpt lat="46.34119" lon="2.47849">
        <ele>404.85</ele>
        <time>2014-12-24T12:21:52Z</time>
      </trkpt>
      <trkpt lat="46.34123" lon="2.47867">
        <ele>403.89</ele>
        <time>2014-12-24T12:23:50Z</time>
      </trkpt>
      <trkpt lat="46.3413" lon="2.47892">
        <ele>403.89</ele>
        <time>2014-12-24T12:24:04Z</time>
      </trkpt>
      <trkpt lat="46.34142" lon="2.47915">
        <ele>403.89</ele>
        <time>2014-12-24T12:24:20Z</time>
      </trkpt>
      <trkpt lat="46.3416" lon="2.47933">
        <ele>403.89</ele>
        <time>2014-12-24T12:24:35Z</time>
      </trkpt>
      <trkpt lat="46.34181" lon="2.47948">
        <ele>403.89</ele>
        <time>2014-12-24T12:24:51Z</time>
      </trkpt>
      <trkpt lat="46.34199" lon="2.47967">
        <ele>403.41</ele>
        <time>2014-12-24T12:25:06Z</time>
      </trkpt>
      <trkpt lat="46.34215" lon="2.47984">
        <ele>401.97</ele>
        <time>2014-12-24T12:25:20Z</time>
      </trkpt>
      <trkpt lat="46.3423" lon="2.47999">
        <ele>401.01</ele>
        <time>2014-12-24T12:25:34Z</time>
      </trkpt>
      <trkpt lat="46.34254" lon="2.48019">
        <ele>398.6</ele>
        <time>2014-12-24T12:25:55Z</time>
      </trkpt>
      <trkpt lat="46.3427" lon="2.48037">
        <ele>397.16</ele>
        <time>2014-12-24T12:26:10Z</time>
      </trkpt>
      <trkpt lat="46.34278" lon="2.48049">
        <ele>396.2</ele>
        <time>2014-12-24T12:26:22Z</time>
      </trkpt>
      <trkpt lat="46.34284" lon="2.48076">
        <ele>394.76</ele>
        <time>2014-12-24T12:26:41Z</time>
      </trkpt>
      <trkpt lat="46.34291" lon="2.48102">
        <ele>393.8</ele>
        <time>2014-12-24T12:26:56Z</time>
      </trkpt>
      <trkpt lat="46.34299" lon="2.48128">
        <ele>393.32</ele>
        <time>2014-12-24T12:27:11Z</time>
      </trkpt>
      <trkpt lat="46.34305" lon="2.48151">
        <ele>390.91</ele>
        <time>2014-12-24T12:27:24Z</time>
      </trkpt>
      <trkpt lat="46.34306" lon="2.48157">
        <ele>390.43</ele>
        <time>2014-12-24T12:28:28Z</time>
      </trkpt>
      <trkpt lat="46.3431" lon="2.48169">
        <ele>389.47</ele>
        <time>2014-12-24T12:28:51Z</time>
      </trkpt>
      <trkpt lat="46.34315" lon="2.48198">
        <ele>388.51</ele>
        <time>2014-12-24T12:29:12Z</time>
      </trkpt>
      <trkpt lat="46.34322" lon="2.48224">
        <ele>386.11</ele>
        <time>2014-12-24T12:29:29Z</time>
      </trkpt>
      <trkpt lat="46.34325" lon="2.48245">
        <ele>384.18</ele>
        <time>2014-12-24T12:29:42Z</time>
      </trkpt>
      <trkpt lat="46.3433" lon="2.48268">
        <ele>383.22</ele>
        <time>2014-12-24T12:29:54Z</time>
      </trkpt>
      <trkpt lat="46.34336" lon="2.48295">
        <ele>381.78</ele>
        <time>2014-12-24T12:30:08Z</time>
      </trkpt>
      <trkpt lat="46.34343" lon="2.48324">
        <ele>379.86</ele>
        <time>2014-12-24T12:30:24Z</time>
      </trkpt>
      <trkpt lat="46.34354" lon="2.4835">
        <ele>378.9</ele>
        <time>2014-12-24T12:30:38Z</time>
      </trkpt>
      <trkpt lat="46.34366" lon="2.48369">
        <ele>378.42</ele>
        <time>2014-12-24T12:30:51Z</time>
      </trkpt>
      <trkpt lat="46.34376" lon="2.48386">
        <ele>376.49</ele>
        <time>2014-12-24T12:31:04Z</time>
      </trkpt>
      <trkpt lat="46.34386" lon="2.48404">
        <ele>374.57</ele>
        <time>2014-12-24T12:31:18Z</time>
      </trkpt>
      <trkpt lat="46.34383" lon="2.48429">
        <ele>373.13</ele>
        <time>2014-12-24T12:31:33Z</time>
      </trkpt>
      <trkpt lat="46.34383" lon="2.48455">
        <ele>371.21</ele>
        <time>2014-12-24T12:31:57Z</time>
      </trkpt>
      <trkpt lat="46.34381" lon="2.48476">
        <ele>369.76</ele>
        <time>2014-12-24T12:32:12Z</time>
      </trkpt>
      <trkpt lat="46.34382" lon="2.48503">
        <ele>367.84</ele>
        <time>2014-12-24T12:32:36Z</time>
      </trkpt>
      <trkpt lat="46.34386" lon="2.48516">
        <ele>366.4</ele>
        <time>2014-12-24T12:32:48Z</time>
      </trkpt>
      <trkpt lat="46.34392" lon="2.48528">
        <ele>364.96</ele>
        <time>2014-12-24T12:32:59Z</time>
      </trkpt>
      <trkpt lat="46.344" lon="2.48542">
        <ele>363.52</ele>
        <time>2014-12-24T12:33:10Z</time>
      </trkpt>
      <trkpt lat="46.34405" lon="2.48561">
        <ele>362.55</ele>
        <time>2014-12-24T12:33:23Z</time>
      </trkpt>
      <trkpt lat="46.34407" lon="2.48577">
        <ele>361.11</ele>
        <time>2014-12-24T12:33:35Z</time>
      </trkpt>
      <trkpt lat="46.3441" lon="2.48601">
        <ele>359.67</ele>
        <time>2014-12-24T12:33:50Z</time>
      </trkpt>
      <trkpt lat="46.34413" lon="2.48617">
        <ele>356.79</ele>
        <time>2014-12-24T12:34:04Z</time>
      </trkpt>
      <trkpt lat="46.34415" lon="2.48632">
        <ele>355.34</ele>
        <time>2014-12-24T12:34:15Z</time>
      </trkpt>
      <trkpt lat="46.34416" lon="2.48652">
        <ele>353.42</ele>
        <time>2014-12-24T12:34:28Z</time>
      </trkpt>
      <trkpt lat="46.34415" lon="2.48666">
        <ele>352.46</ele>
        <time>2014-12-24T12:34:38Z</time>
      </trkpt>
      <trkpt lat="46.34415" lon="2.48695">
        <ele>351.02</ele>
        <time>2014-12-24T12:34:52Z</time>
      </trkpt>
      <trkpt lat="46.34414" lon="2.48719">
        <ele>350.06</ele>
        <time>2014-12-24T12:35:07Z</time>
      </trkpt>
      <trkpt lat="46.34419" lon="2.48734">
        <ele>349.58</ele>
        <time>2014-12-24T12:35:19Z</time>
      </trkpt>
      <trkpt lat="46.34428" lon="2.48745">
        <ele>348.62</ele>
        <time>2014-12-24T12:35:29Z</time>
      </trkpt>
      <trkpt lat="46.34434" lon="2.48761">
        <ele>347.65</ele>
        <time>2014-12-24T12:35:58Z</time>
      </trkpt>
      <trkpt lat="46.34443" lon="2.48766">
        <ele>347.65</ele>
        <time>2014-12-24T12:36:21Z</time>
      </trkpt>
      <trkpt lat="46.34448" lon="2.48779">
        <ele>346.69</ele>
        <time>2014-12-24T12:36:48Z</time>
      </trkpt>
      <trkpt lat="46.34452" lon="2.4876">
        <ele>348.13</ele>
        <time>2014-12-24T12:37:08Z</time>
      </trkpt>
      <trkpt lat="46.34459" lon="2.48741">
        <ele>348.62</ele>
        <time>2014-12-24T12:37:22Z</time>
      </trkpt>
      <trkpt lat="46.34467" lon="2.48719">
        <ele>349.1</ele>
        <time>2014-12-24T12:37:38Z</time>
      </trkpt>
      <trkpt lat="46.34476" lon="2.48704">
        <ele>350.06</ele>
        <time>2014-12-24T12:37:49Z</time>
      </trkpt>
      <trkpt lat="46.34485" lon="2.48686">
        <ele>349.58</ele>
        <time>2014-12-24T12:38:02Z</time>
      </trkpt>
      <trkpt lat="46.34494" lon="2.48667">
        <ele>350.06</ele>
        <time>2014-12-24T12:38:14Z</time>
      </trkpt>
      <trkpt lat="46.34504" lon="2.48641">
        <ele>350.06</ele>
        <time>2014-12-24T12:38:30Z</time>
      </trkpt>
      <trkpt lat="46.34512" lon="2.48616">
        <ele>350.06</ele>
        <time>2014-12-24T12:38:45Z</time>
      </trkpt>
      <trkpt lat="46.34513" lon="2.48594">
        <ele>350.06</ele>
        <time>2014-12-24T12:38:57Z</time>
      </trkpt>
      <trkpt lat="46.34511" lon="2.48573">
        <ele>351.02</ele>
        <time>2014-12-24T12:39:09Z</time>
      </trkpt>
      <trkpt lat="46.34506" lon="2.48543">
        <ele>351.5</ele>
        <time>2014-12-24T12:39:27Z</time>
      </trkpt>
      <trkpt lat="46.34503" lon="2.48522">
        <ele>351.5</ele>
        <time>2014-12-24T12:39:39Z</time>
      </trkpt>
      <trkpt lat="46.345" lon="2.48496">
        <ele>352.46</ele>
        <time>2014-12-24T12:39:55Z</time>
      </trkpt>
      <trkpt lat="46.34497" lon="2.48472">
        <ele>352.46</ele>
        <time>2014-12-24T12:40:09Z</time>
      </trkpt>
      <trkpt lat="46.34496" lon="2.48456">
        <ele>352.94</ele>
        <time>2014-12-24T12:40:22Z</time>
      </trkpt>
      <trkpt lat="46.34496" lon="2.4843">
        <ele>353.9</ele>
        <time>2014-12-24T12:40:37Z</time>
      </trkpt>
      <trkpt lat="46.34499" lon="2.48405">
        <ele>353.9</ele>
        <time>2014-12-24T12:40:50Z</time>
      </trkpt>
      <trkpt lat="46.34503" lon="2.48387">
        <ele>353.9</ele>
        <time>2014-12-24T12:41:08Z</time>
      </trkpt>
      <trkpt lat="46.34502" lon="2.48367">
        <ele>353.9</ele>
        <time>2014-12-24T12:41:19Z</time>
      </trkpt>
      <trkpt lat="46.34502" lon="2.48343">
        <ele>354.86</ele>
        <time>2014-12-24T12:41:32Z</time>
      </trkpt>
      <trkpt lat="46.34501" lon="2.48312">
        <ele>355.34</ele>
        <time>2014-12-24T12:41:49Z</time>
      </trkpt>
      <trkpt lat="46.34501" lon="2.48297">
        <ele>355.83</ele>
        <time>2014-12-24T12:41:57Z</time>
      </trkpt>
      <trkpt lat="46.34499" lon="2.4827">
        <ele>356.31</ele>
        <time>2014-12-24T12:42:13Z</time>
      </trkpt>
      <trkpt lat="46.34495" lon="2.48247">
        <ele>356.31</ele>
        <time>2014-12-24T12:42:25Z</time>
      </trkpt>
      <trkpt lat="46.34496" lon="2.48226">
        <ele>357.75</ele>
        <time>2014-12-24T12:42:39Z</time>
      </trkpt>
      <trkpt lat="46.3451" lon="2.48209">
        <ele>357.75</ele>
        <time>2014-12-24T12:42:54Z</time>
      </trkpt>
      <trkpt lat="46.34523" lon="2.48195">
        <ele>357.75</ele>
        <time>2014-12-24T12:43:07Z</time>
      </trkpt>
      <trkpt lat="46.34537" lon="2.48182">
        <ele>356.31</ele>
        <time>2014-12-24T12:43:20Z</time>
      </trkpt>
      <trkpt lat="46.34545" lon="2.48174">
        <ele>355.83</ele>
        <time>2014-12-24T12:43:28Z</time>
      </trkpt>
      <trkpt lat="46.34564" lon="2.48153">
        <ele>355.34</ele>
        <time>2014-12-24T12:43:45Z</time>
      </trkpt>
      <trkpt lat="46.34575" lon="2.48136">
        <ele>354.86</ele>
        <time>2014-12-24T12:43:58Z</time>
      </trkpt>
      <trkpt lat="46.34581" lon="2.48108">
        <ele>354.38</ele>
        <time>2014-12-24T12:44:14Z</time>
      </trkpt>
      <trkpt lat="46.34586" lon="2.48089">
        <ele>354.38</ele>
        <time>2014-12-24T12:44:25Z</time>
      </trkpt>
      <trkpt lat="46.34591" lon="2.48064">
        <ele>354.38</ele>
        <time>2014-12-24T12:44:39Z</time>
      </trkpt>
      <trkpt lat="46.34592" lon="2.48048">
        <ele>354.38</ele>
        <time>2014-12-24T12:44:48Z</time>
      </trkpt>
      <trkpt lat="46.34591" lon="2.48017">
        <ele>355.34</ele>
        <time>2014-12-24T12:45:06Z</time>
      </trkpt>
      <trkpt lat="46.34587" lon="2.47995">
        <ele>355.34</ele>
        <time>2014-12-24T12:45:19Z</time>
      </trkpt>
      <trkpt lat="46.34585" lon="2.47979">
        <ele>355.83</ele>
        <time>2014-12-24T12:45:30Z</time>
      </trkpt>
      <trkpt lat="46.34585" lon="2.4796">
        <ele>355.83</ele>
        <time>2014-12-24T12:45:41Z</time>
      </trkpt>
      <trkpt lat="46.34583" lon="2.47941">
        <ele>356.31</ele>
        <time>2014-12-24T12:45:53Z</time>
      </trkpt>
      <trkpt lat="46.34587" lon="2.47919">
        <ele>356.31</ele>
        <time>2014-12-24T12:46:10Z</time>
      </trkpt>
      <trkpt lat="46.34587" lon="2.47887">
        <ele>356.31</ele>
        <time>2014-12-24T12:46:30Z</time>
      </trkpt>
      <trkpt lat="46.34588" lon="2.47868">
        <ele>356.31</ele>
        <time>2014-12-24T12:46:41Z</time>
      </trkpt>
      <trkpt lat="46.34588" lon="2.47848">
        <ele>356.79</ele>
        <time>2014-12-24T12:46:53Z</time>
      </trkpt>
      <trkpt lat="46.3459" lon="2.47824">
        <ele>356.79</ele>
        <time>2014-12-24T12:47:06Z</time>
      </trkpt>
      <trkpt lat="46.34592" lon="2.47799">
        <ele>356.79</ele>
        <time>2014-12-24T12:47:20Z</time>
      </trkpt>
      <trkpt lat="46.34595" lon="2.47779">
        <ele>356.79</ele>
        <time>2014-12-24T12:47:32Z</time>
      </trkpt>
      <trkpt lat="46.34598" lon="2.47755">
        <ele>357.27</ele>
        <time>2014-12-24T12:47:45Z</time>
      </trkpt>
      <trkpt lat="46.34602" lon="2.47733">
        <ele>357.27</ele>
        <time>2014-12-24T12:47:57Z</time>
      </trkpt>
      <trkpt lat="46.34604" lon="2.4772">
        <ele>357.27</ele>
        <time>2014-12-24T12:48:05Z</time>
      </trkpt>
      <trkpt lat="46.34607" lon="2.47704">
        <ele>357.27</ele>
        <time>2014-12-24T12:48:16Z</time>
      </trkpt>
      <trkpt lat="46.3461" lon="2.47685">
        <ele>355.83</ele>
        <time>2014-12-24T12:48:34Z</time>
      </trkpt>
      <trkpt lat="46.34606" lon="2.47669">
        <ele>355.83</ele>
        <time>2014-12-24T12:48:45Z</time>
      </trkpt>
      <trkpt lat="46.34604" lon="2.4765">
        <ele>355.83</ele>
        <time>2014-12-24T12:48:57Z</time>
      </trkpt>
      <trkpt lat="46.346" lon="2.4763">
        <ele>355.83</ele>
        <time>2014-12-24T12:49:09Z</time>
      </trkpt>
      <trkpt lat="46.34598" lon="2.4761">
        <ele>355.83</ele>
        <time>2014-12-24T12:49:21Z</time>
      </trkpt>
      <trkpt lat="46.34596" lon="2.47585">
        <ele>355.83</ele>
        <time>2014-12-24T12:49:34Z</time>
      </trkpt>
      <trkpt lat="46.34596" lon="2.47559">
        <ele>355.34</ele>
        <time>2014-12-24T12:49:47Z</time>
      </trkpt>
      <trkpt lat="46.34597" lon="2.47536">
        <ele>354.86</ele>
        <time>2014-12-24T12:49:59Z</time>
      </trkpt>
      <trkpt lat="46.34598" lon="2.47515">
        <ele>355.83</ele>
        <time>2014-12-24T12:50:12Z</time>
      </trkpt>
      <trkpt lat="46.34598" lon="2.47493">
        <ele>355.83</ele>
        <time>2014-12-24T12:50:25Z</time>
      </trkpt>
      <trkpt lat="46.34598" lon="2.47477">
        <ele>355.83</ele>
        <time>2014-12-24T12:50:35Z</time>
      </trkpt>
      <trkpt lat="46.34598" lon="2.47452">
        <ele>356.31</ele>
        <time>2014-12-24T12:50:49Z</time>
      </trkpt>
      <trkpt lat="46.34598" lon="2.47419">
        <ele>357.27</ele>
        <time>2014-12-24T12:51:06Z</time>
      </trkpt>
      <trkpt lat="46.34599" lon="2.47389">
        <ele>357.75</ele>
        <time>2014-12-24T12:51:21Z</time>
      </trkpt>
      <trkpt lat="46.34599" lon="2.47368">
        <ele>357.75</ele>
        <time>2014-12-24T12:51:32Z</time>
      </trkpt>
      <trkpt lat="46.346" lon="2.47334">
        <ele>357.75</ele>
        <time>2014-12-24T12:51:49Z</time>
      </trkpt>
      <trkpt lat="46.34601" lon="2.47306">
        <ele>357.75</ele>
        <time>2014-12-24T12:52:03Z</time>
      </trkpt>
      <trkpt lat="46.34602" lon="2.47269">
        <ele>358.23</ele>
        <time>2014-12-24T12:52:22Z</time>
      </trkpt>
      <trkpt lat="46.34604" lon="2.47231">
        <ele>358.23</ele>
        <time>2014-12-24T12:52:41Z</time>
      </trkpt>
      <trkpt lat="46.34604" lon="2.47205">
        <ele>357.75</ele>
        <time>2014-12-24T12:52:54Z</time>
      </trkpt>
      <trkpt lat="46.34608" lon="2.47172">
        <ele>355.83</ele>
        <time>2014-12-24T12:53:12Z</time>
      </trkpt>
      <trkpt lat="46.34628" lon="2.47157">
        <ele>354.86</ele>
        <time>2014-12-24T12:53:27Z</time>
      </trkpt>
      <trkpt lat="46.34653" lon="2.47149">
        <ele>353.9</ele>
        <time>2014-12-24T12:53:43Z</time>
      </trkpt>
      <trkpt lat="46.34659" lon="2.47127">
        <ele>353.42</ele>
        <time>2014-12-24T12:53:56Z</time>
      </trkpt>
      <trkpt lat="46.3465" lon="2.47104">
        <ele>353.42</ele>
        <time>2014-12-24T12:54:09Z</time>
      </trkpt>
      <trkpt lat="46.3464" lon="2.47072">
        <ele>353.42</ele>
        <time>2014-12-24T12:54:25Z</time>
      </trkpt>
      <trkpt lat="46.34644" lon="2.47036">
        <ele>354.86</ele>
        <time>2014-12-24T12:54:43Z</time>
      </trkpt>
      <trkpt lat="46.34656" lon="2.47006">
        <ele>355.34</ele>
        <time>2014-12-24T12:55:01Z</time>
      </trkpt>
      <trkpt lat="46.34667" lon="2.46979">
        <ele>351.98</ele>
        <time>2014-12-24T12:55:18Z</time>
      </trkpt>
      <trkpt lat="46.34686" lon="2.46971">
        <ele>352.94</ele>
        <time>2014-12-24T12:55:36Z</time>
      </trkpt>
      <trkpt lat="46.34706" lon="2.46967">
        <ele>352.94</ele>
        <time>2014-12-24T12:55:52Z</time>
      </trkpt>
      <trkpt lat="46.34725" lon="2.46975">
        <ele>351.02</ele>
        <time>2014-12-24T12:56:06Z</time>
      </trkpt>
      <trkpt lat="46.34741" lon="2.46986">
        <ele>350.54</ele>
        <time>2014-12-24T12:56:19Z</time>
      </trkpt>
      <trkpt lat="46.34757" lon="2.46995">
        <ele>348.62</ele>
        <time>2014-12-24T12:56:32Z</time>
      </trkpt>
      <trkpt lat="46.34773" lon="2.46995">
        <ele>347.65</ele>
        <time>2014-12-24T12:56:46Z</time>
      </trkpt>
      <trkpt lat="46.34789" lon="2.46993">
        <ele>345.73</ele>
        <time>2014-12-24T12:56:59Z</time>
      </trkpt>
      <trkpt lat="46.34801" lon="2.46975">
        <ele>344.77</ele>
        <time>2014-12-24T12:57:13Z</time>
      </trkpt>
      <trkpt lat="46.34803" lon="2.4695">
        <ele>343.81</ele>
        <time>2014-12-24T12:57:26Z</time>
      </trkpt>
      <trkpt lat="46.34796" lon="2.46926">
        <ele>342.85</ele>
        <time>2014-12-24T12:57:40Z</time>
      </trkpt>
      <trkpt lat="46.3479" lon="2.46911">
        <ele>342.37</ele>
        <time>2014-12-24T12:57:49Z</time>
      </trkpt>
      <trkpt lat="46.34788" lon="2.46896">
        <ele>342.37</ele>
        <time>2014-12-24T12:57:56Z</time>
      </trkpt>
      <trkpt lat="46.34794" lon="2.4688">
        <ele>340.92</ele>
        <time>2014-12-24T12:58:07Z</time>
      </trkpt>
      <trkpt lat="46.34803" lon="2.46869">
        <ele>340.44</ele>
        <time>2014-12-24T12:58:40Z</time>
      </trkpt>
      <trkpt lat="46.34819" lon="2.46864">
        <ele>340.44</ele>
        <time>2014-12-24T12:59:00Z</time>
      </trkpt>
      <trkpt lat="46.34831" lon="2.46859">
        <ele>340.44</ele>
        <time>2014-12-24T12:59:33Z</time>
      </trkpt>
      <trkpt lat="46.34816" lon="2.4685">
        <ele>340.44</ele>
        <time>2014-12-24T13:00:24Z</time>
      </trkpt>
      <trkpt lat="46.34813" lon="2.46838">
        <ele>340.44</ele>
        <time>2014-12-24T13:00:45Z</time>
      </trkpt>
      <trkpt lat="46.34808" lon="2.46813">
        <ele>340.44</ele>
        <time>2014-12-24T13:01:11Z</time>
      </trkpt>
      <trkpt lat="46.34809" lon="2.46793">
        <ele>342.37</ele>
        <time>2014-12-24T13:01:26Z</time>
      </trkpt>
      <trkpt lat="46.34805" lon="2.46774">
        <ele>343.33</ele>
        <time>2014-12-24T13:01:39Z</time>
      </trkpt>
      <trkpt lat="46.34797" lon="2.46761">
        <ele>342.85</ele>
        <time>2014-12-24T13:01:51Z</time>
      </trkpt>
      <trkpt lat="46.34784" lon="2.46734">
        <ele>345.25</ele>
        <time>2014-12-24T13:02:13Z</time>
      </trkpt>
      <trkpt lat="46.34776" lon="2.46717">
        <ele>345.25</ele>
        <time>2014-12-24T13:02:25Z</time>
      </trkpt>
      <trkpt lat="46.34768" lon="2.46699">
        <ele>345.25</ele>
        <time>2014-12-24T13:02:38Z</time>
      </trkpt>
      <trkpt lat="46.34762" lon="2.46683">
        <ele>345.25</ele>
        <time>2014-12-24T13:02:48Z</time>
      </trkpt>
      <trkpt lat="46.34753" lon="2.46663">
        <ele>345.73</ele>
        <time>2014-12-24T13:03:01Z</time>
      </trkpt>
      <trkpt lat="46.34745" lon="2.46641">
        <ele>346.21</ele>
        <time>2014-12-24T13:03:15Z</time>
      </trkpt>
      <trkpt lat="46.3474" lon="2.46622">
        <ele>346.21</ele>
        <time>2014-12-24T13:03:26Z</time>
      </trkpt>
      <trkpt lat="46.34734" lon="2.46603">
        <ele>346.21</ele>
        <time>2014-12-24T13:03:38Z</time>
      </trkpt>
      <trkpt lat="46.34729" lon="2.46586">
        <ele>346.21</ele>
        <time>2014-12-24T13:03:48Z</time>
      </trkpt>
      <trkpt lat="46.34724" lon="2.46574">
        <ele>344.77</ele>
        <time>2014-12-24T13:03:56Z</time>
      </trkpt>
      <trkpt lat="46.34718" lon="2.46558">
        <ele>344.77</ele>
        <time>2014-12-24T13:04:07Z</time>
      </trkpt>
      <trkpt lat="46.34714" lon="2.46546">
        <ele>344.77</ele>
        <time>2014-12-24T13:04:17Z</time>
      </trkpt>
      <trkpt lat="46.34705" lon="2.46524">
        <ele>345.73</ele>
        <time>2014-12-24T13:04:31Z</time>
      </trkpt>
      <trkpt lat="46.34699" lon="2.46507">
        <ele>346.21</ele>
        <time>2014-12-24T13:04:43Z</time>
      </trkpt>
      <trkpt lat="46.34696" lon="2.46489">
        <ele>346.69</ele>
        <time>2014-12-24T13:04:54Z</time>
      </trkpt>
      <trkpt lat="46.34693" lon="2.46471">
        <ele>346.69</ele>
        <time>2014-12-24T13:05:02Z</time>
      </trkpt>
      <trkpt lat="46.34689" lon="2.46432">
        <ele>347.65</ele>
        <time>2014-12-24T13:05:21Z</time>
      </trkpt>
      <trkpt lat="46.34685" lon="2.46409">
        <ele>348.13</ele>
        <time>2014-12-24T13:05:35Z</time>
      </trkpt>
      <trkpt lat="46.34678" lon="2.46391">
        <ele>348.62</ele>
        <time>2014-12-24T13:05:47Z</time>
      </trkpt>
      <trkpt lat="46.34668" lon="2.46367">
        <ele>349.1</ele>
        <time>2014-12-24T13:06:01Z</time>
      </trkpt>
      <trkpt lat="46.34652" lon="2.46343">
        <ele>347.65</ele>
        <time>2014-12-24T13:06:17Z</time>
      </trkpt>
      <trkpt lat="46.34637" lon="2.46329">
        <ele>347.17</ele>
        <time>2014-12-24T13:06:33Z</time>
      </trkpt>
      <trkpt lat="46.34625" lon="2.46326">
        <ele>347.17</ele>
        <time>2014-12-24T13:06:45Z</time>
      </trkpt>
      <trkpt lat="46.34613" lon="2.46317">
        <ele>347.17</ele>
        <time>2014-12-24T13:06:58Z</time>
      </trkpt>
      <trkpt lat="46.34596" lon="2.463">
        <ele>348.13</ele>
        <time>2014-12-24T13:07:13Z</time>
      </trkpt>
      <trkpt lat="46.34583" lon="2.46285">
        <ele>349.1</ele>
        <time>2014-12-24T13:07:26Z</time>
      </trkpt>
      <trkpt lat="46.34573" lon="2.46269">
        <ele>349.58</ele>
        <time>2014-12-24T13:07:38Z</time>
      </trkpt>
      <trkpt lat="46.34565" lon="2.46256">
        <ele>349.58</ele>
        <time>2014-12-24T13:07:47Z</time>
      </trkpt>
      <trkpt lat="46.34556" lon="2.46241">
        <ele>350.54</ele>
        <time>2014-12-24T13:07:59Z</time>
      </trkpt>
      <trkpt lat="46.34548" lon="2.46222">
        <ele>351.02</ele>
        <time>2014-12-24T13:08:12Z</time>
      </trkpt>
      <trkpt lat="46.34539" lon="2.46206">
        <ele>351.98</ele>
        <time>2014-12-24T13:08:25Z</time>
      </trkpt>
      <trkpt lat="46.34533" lon="2.4619">
        <ele>352.46</ele>
        <time>2014-12-24T13:08:36Z</time>
      </trkpt>
      <trkpt lat="46.34528" lon="2.46177">
        <ele>352.94</ele>
        <time>2014-12-24T13:08:44Z</time>
      </trkpt>
      <trkpt lat="46.34521" lon="2.46148">
        <ele>354.38</ele>
        <time>2014-12-24T13:09:03Z</time>
      </trkpt>
      <trkpt lat="46.34523" lon="2.46127">
        <ele>355.34</ele>
        <time>2014-12-24T13:09:17Z</time>
      </trkpt>
      <trkpt lat="46.34523" lon="2.46102">
        <ele>355.34</ele>
        <time>2014-12-24T13:09:31Z</time>
      </trkpt>
      <trkpt lat="46.34523" lon="2.46087">
        <ele>355.83</ele>
        <time>2014-12-24T13:10:02Z</time>
      </trkpt>
      <trkpt lat="46.34521" lon="2.46065">
        <ele>356.31</ele>
        <time>2014-12-24T13:10:43Z</time>
      </trkpt>
      <trkpt lat="46.34516" lon="2.46053">
        <ele>357.27</ele>
        <time>2014-12-24T13:10:51Z</time>
      </trkpt>
      <trkpt lat="46.34508" lon="2.46014">
        <ele>358.71</ele>
        <time>2014-12-24T13:11:11Z</time>
      </trkpt>
      <trkpt lat="46.34503" lon="2.45997">
        <ele>359.67</ele>
        <time>2014-12-24T13:11:23Z</time>
      </trkpt>
      <trkpt lat="46.34499" lon="2.45973">
        <ele>360.63</ele>
        <time>2014-12-24T13:11:44Z</time>
      </trkpt>
      <trkpt lat="46.34497" lon="2.45953">
        <ele>361.59</ele>
        <time>2014-12-24T13:11:56Z</time>
      </trkpt>
      <trkpt lat="46.34492" lon="2.45929">
        <ele>362.55</ele>
        <time>2014-12-24T13:12:09Z</time>
      </trkpt>
      <trkpt lat="46.34486" lon="2.45906">
        <ele>363.04</ele>
        <time>2014-12-24T13:12:23Z</time>
      </trkpt>
      <trkpt lat="46.34482" lon="2.4587">
        <ele>363.52</ele>
        <time>2014-12-24T13:12:44Z</time>
      </trkpt>
      <trkpt lat="46.34481" lon="2.45847">
        <ele>364.48</ele>
        <time>2014-12-24T13:12:58Z</time>
      </trkpt>
      <trkpt lat="46.3448" lon="2.45828">
        <ele>365.44</ele>
        <time>2014-12-24T13:13:09Z</time>
      </trkpt>
      <trkpt lat="46.34471" lon="2.45813">
        <ele>365.44</ele>
        <time>2014-12-24T13:13:23Z</time>
      </trkpt>
      <trkpt lat="46.34461" lon="2.45801">
        <ele>365.92</ele>
        <time>2014-12-24T13:13:35Z</time>
      </trkpt>
      <trkpt lat="46.34445" lon="2.45789">
        <ele>366.4</ele>
        <time>2014-12-24T13:13:48Z</time>
      </trkpt>
      <trkpt lat="46.34428" lon="2.45781">
        <ele>366.88</ele>
        <time>2014-12-24T13:14:01Z</time>
      </trkpt>
      <trkpt lat="46.34414" lon="2.45777">
        <ele>367.36</ele>
        <time>2014-12-24T13:14:13Z</time>
      </trkpt>
      <trkpt lat="46.344" lon="2.45773">
        <ele>367.84</ele>
        <time>2014-12-24T13:14:24Z</time>
      </trkpt>
      <trkpt lat="46.3439" lon="2.45773">
        <ele>368.8</ele>
        <time>2014-12-24T13:14:39Z</time>
      </trkpt>
      <trkpt lat="46.34383" lon="2.45787">
        <ele>369.28</ele>
        <time>2014-12-24T13:15:02Z</time>
      </trkpt>
      <trkpt lat="46.34375" lon="2.45808">
        <ele>370.73</ele>
        <time>2014-12-24T13:15:18Z</time>
      </trkpt>
      <trkpt lat="46.34367" lon="2.45835">
        <ele>373.13</ele>
        <time>2014-12-24T13:15:39Z</time>
      </trkpt>
      <trkpt lat="46.34356" lon="2.45859">
        <ele>375.05</ele>
        <time>2014-12-24T13:16:01Z</time>
      </trkpt>
      <trkpt lat="46.34351" lon="2.45873">
        <ele>376.49</ele>
        <time>2014-12-24T13:16:15Z</time>
      </trkpt>
      <trkpt lat="46.34346" lon="2.45885">
        <ele>377.94</ele>
        <time>2014-12-24T13:16:27Z</time>
      </trkpt>
      <trkpt lat="46.34346" lon="2.45904">
        <ele>379.38</ele>
        <time>2014-12-24T13:16:39Z</time>
      </trkpt>
      <trkpt lat="46.34348" lon="2.45923">
        <ele>381.78</ele>
        <time>2014-12-24T13:16:54Z</time>
      </trkpt>
      <trkpt lat="46.34332" lon="2.45918">
        <ele>383.7</ele>
        <time>2014-12-24T13:17:15Z</time>
      </trkpt>
      <trkpt lat="46.34322" lon="2.45908">
        <ele>385.15</ele>
        <time>2014-12-24T13:17:27Z</time>
      </trkpt>
      <trkpt lat="46.34312" lon="2.45891">
        <ele>386.59</ele>
        <time>2014-12-24T13:17:40Z</time>
      </trkpt>
      <trkpt lat="46.3431" lon="2.45871">
        <ele>388.03</ele>
        <time>2014-12-24T13:17:53Z</time>
      </trkpt>
      <trkpt lat="46.3431" lon="2.4585">
        <ele>388.99</ele>
        <time>2014-12-24T13:18:06Z</time>
      </trkpt>
      <trkpt lat="46.34308" lon="2.45834">
        <ele>389.95</ele>
        <time>2014-12-24T13:18:16Z</time>
      </trkpt>
      <trkpt lat="46.34303" lon="2.45815">
        <ele>390.91</ele>
        <time>2014-12-24T13:18:30Z</time>
      </trkpt>
      <trkpt lat="46.34298" lon="2.45803">
        <ele>391.39</ele>
        <time>2014-12-24T13:18:43Z</time>
      </trkpt>
      <trkpt lat="46.3429" lon="2.45789">
        <ele>393.8</ele>
        <time>2014-12-24T13:18:56Z</time>
      </trkpt>
      <trkpt lat="46.34281" lon="2.45774">
        <ele>395.72</ele>
        <time>2014-12-24T13:19:11Z</time>
      </trkpt>
      <trkpt lat="46.34274" lon="2.45765">
        <ele>396.68</ele>
        <time>2014-12-24T13:19:20Z</time>
      </trkpt>
      <trkpt lat="46.34268" lon="2.45755">
        <ele>397.16</ele>
        <time>2014-12-24T13:19:30Z</time>
      </trkpt>
      <trkpt lat="46.34258" lon="2.45731">
        <ele>398.12</ele>
        <time>2014-12-24T13:19:49Z</time>
      </trkpt>
      <trkpt lat="46.34247" lon="2.45709">
        <ele>398.6</ele>
        <time>2014-12-24T13:20:12Z</time>
      </trkpt>
      <trkpt lat="46.34232" lon="2.45687">
        <ele>399.57</ele>
        <time>2014-12-24T13:20:31Z</time>
      </trkpt>
      <trkpt lat="46.34221" lon="2.45674">
        <ele>400.05</ele>
        <time>2014-12-24T13:20:43Z</time>
      </trkpt>
      <trkpt lat="46.34212" lon="2.45661">
        <ele>400.53</ele>
        <time>2014-12-24T13:20:56Z</time>
      </trkpt>
      <trkpt lat="46.34202" lon="2.4565">
        <ele>400.53</ele>
        <time>2014-12-24T13:21:07Z</time>
      </trkpt>
      <trkpt lat="46.34189" lon="2.45635">
        <ele>401.49</ele>
        <time>2014-12-24T13:21:21Z</time>
      </trkpt>
      <trkpt lat="46.34182" lon="2.45625">
        <ele>401.97</ele>
        <time>2014-12-24T13:21:30Z</time>
      </trkpt>
      <trkpt lat="46.34171" lon="2.45614">
        <ele>402.45</ele>
        <time>2014-12-24T13:21:43Z</time>
      </trkpt>
      <trkpt lat="46.34163" lon="2.45601">
        <ele>402.93</ele>
        <time>2014-12-24T13:21:54Z</time>
      </trkpt>
      <trkpt lat="46.34153" lon="2.4558">
        <ele>403.89</ele>
        <time>2014-12-24T13:22:08Z</time>
      </trkpt>
      <trkpt lat="46.34146" lon="2.45566">
        <ele>404.37</ele>
        <time>2014-12-24T13:22:21Z</time>
      </trkpt>
      <trkpt lat="46.34146" lon="2.45558">
        <ele>404.85</ele>
        <time>2014-12-24T13:24:30Z</time>
      </trkpt>
      <trkpt lat="46.34137" lon="2.45531">
        <ele>404.85</ele>
        <time>2014-12-24T13:24:53Z</time>
      </trkpt>
      <trkpt lat="46.34127" lon="2.45505">
        <ele>405.33</ele>
        <time>2014-12-24T13:25:13Z</time>
      </trkpt>
      <trkpt lat="46.34118" lon="2.45489">
        <ele>403.89</ele>
        <time>2014-12-24T13:25:26Z</time>
      </trkpt>
      <trkpt lat="46.34112" lon="2.45476">
        <ele>405.33</ele>
        <time>2014-12-24T13:25:53Z</time>
      </trkpt>
      <trkpt lat="46.34101" lon="2.45456">
        <ele>405.33</ele>
        <time>2014-12-24T13:26:08Z</time>
      </trkpt>
      <trkpt lat="46.3409" lon="2.45436">
        <ele>405.33</ele>
        <time>2014-12-24T13:26:22Z</time>
      </trkpt>
      <trkpt lat="46.34079" lon="2.45412">
        <ele>405.33</ele>
        <time>2014-12-24T13:26:37Z</time>
      </trkpt>
      <trkpt lat="46.34073" lon="2.454">
        <ele>403.89</ele>
        <time>2014-12-24T13:26:46Z</time>
      </trkpt>
      <trkpt lat="46.34065" lon="2.45376">
        <ele>404.37</ele>
        <time>2014-12-24T13:27:01Z</time>
      </trkpt>
      <trkpt lat="46.34059" lon="2.45353">
        <ele>403.89</ele>
        <time>2014-12-24T13:27:14Z</time>
      </trkpt>
      <trkpt lat="46.34052" lon="2.45333">
        <ele>403.41</ele>
        <time>2014-12-24T13:27:26Z</time>
      </trkpt>
      <trkpt lat="46.34045" lon="2.45312">
        <ele>402.45</ele>
        <time>2014-12-24T13:27:38Z</time>
      </trkpt>
      <trkpt lat="46.34035" lon="2.45291">
        <ele>401.49</ele>
        <time>2014-12-24T13:27:51Z</time>
      </trkpt>
      <trkpt lat="46.34026" lon="2.45271">
        <ele>399.57</ele>
        <time>2014-12-24T13:28:06Z</time>
      </trkpt>
      <trkpt lat="46.34018" lon="2.45249">
        <ele>399.08</ele>
        <time>2014-12-24T13:28:20Z</time>
      </trkpt>
      <trkpt lat="46.34013" lon="2.4523">
        <ele>397.64</ele>
        <time>2014-12-24T13:28:32Z</time>
      </trkpt>
      <trkpt lat="46.34008" lon="2.45211">
        <ele>397.64</ele>
        <time>2014-12-24T13:28:44Z</time>
      </trkpt>
      <trkpt lat="46.34002" lon="2.45193">
        <ele>397.16</ele>
        <time>2014-12-24T13:28:57Z</time>
      </trkpt>
      <trkpt lat="46.33996" lon="2.4517">
        <ele>397.16</ele>
        <time>2014-12-24T13:29:10Z</time>
      </trkpt>
      <trkpt lat="46.3399" lon="2.45152">
        <ele>397.16</ele>
        <time>2014-12-24T13:29:22Z</time>
      </trkpt>
      <trkpt lat="46.33983" lon="2.45131">
        <ele>398.12</ele>
        <time>2014-12-24T13:29:35Z</time>
      </trkpt>
      <trkpt lat="46.33976" lon="2.45098">
        <ele>399.08</ele>
        <time>2014-12-24T13:29:55Z</time>
      </trkpt>
      <trkpt lat="46.33974" lon="2.45078">
        <ele>400.05</ele>
        <time>2014-12-24T13:30:08Z</time>
      </trkpt>
      <trkpt lat="46.33966" lon="2.45071">
        <ele>401.49</ele>
        <time>2014-12-24T13:30:20Z</time>
      </trkpt>
      <trkpt lat="46.33956" lon="2.45069">
        <ele>401.97</ele>
        <time>2014-12-24T13:30:31Z</time>
      </trkpt>
      <trkpt lat="46.33944" lon="2.45068">
        <ele>402.45</ele>
        <time>2014-12-24T13:30:45Z</time>
      </trkpt>
      <trkpt lat="46.3393" lon="2.45069">
        <ele>402.93</ele>
        <time>2014-12-24T13:31:18Z</time>
      </trkpt>
      <trkpt lat="46.33915" lon="2.45075">
        <ele>404.37</ele>
        <time>2014-12-24T13:31:31Z</time>
      </trkpt>
      <trkpt lat="46.33901" lon="2.45082">
        <ele>404.85</ele>
        <time>2014-12-24T13:31:45Z</time>
      </trkpt>
      <trkpt lat="46.33889" lon="2.45087">
        <ele>405.81</ele>
        <time>2014-12-24T13:31:56Z</time>
      </trkpt>
      <trkpt lat="46.33873" lon="2.45094">
        <ele>407.26</ele>
        <time>2014-12-24T13:32:08Z</time>
      </trkpt>
      <trkpt lat="46.33857" lon="2.45102">
        <ele>408.22</ele>
        <time>2014-12-24T13:32:20Z</time>
      </trkpt>
      <trkpt lat="46.33844" lon="2.45104">
        <ele>407.74</ele>
        <time>2014-12-24T13:32:40Z</time>
      </trkpt>
      <trkpt lat="46.33831" lon="2.45096">
        <ele>409.18</ele>
        <time>2014-12-24T13:32:57Z</time>
      </trkpt>
      <trkpt lat="46.33823" lon="2.45102">
        <ele>409.66</ele>
        <time>2014-12-24T13:33:17Z</time>
      </trkpt>
      <trkpt lat="46.33814" lon="2.45126">
        <ele>408.22</ele>
        <time>2014-12-24T13:33:32Z</time>
      </trkpt>
      <trkpt lat="46.33804" lon="2.45149">
        <ele>407.74</ele>
        <time>2014-12-24T13:33:47Z</time>
      </trkpt>
      <trkpt lat="46.3379" lon="2.45173">
        <ele>407.74</ele>
        <time>2014-12-24T13:34:02Z</time>
      </trkpt>
      <trkpt lat="46.33777" lon="2.45192">
        <ele>407.26</ele>
        <time>2014-12-24T13:34:16Z</time>
      </trkpt>
      <trkpt lat="46.33765" lon="2.45207">
        <ele>406.77</ele>
        <time>2014-12-24T13:34:28Z</time>
      </trkpt>
      <trkpt lat="46.3375" lon="2.45227">
        <ele>406.29</ele>
        <time>2014-12-24T13:34:44Z</time>
      </trkpt>
      <trkpt lat="46.3374" lon="2.45243">
        <ele>405.81</ele>
        <time>2014-12-24T13:34:56Z</time>
      </trkpt>
      <trkpt lat="46.33732" lon="2.45265">
        <ele>404.85</ele>
        <time>2014-12-24T13:35:10Z</time>
      </trkpt>
      <trkpt lat="46.33726" lon="2.45288">
        <ele>403.89</ele>
        <time>2014-12-24T13:35:24Z</time>
      </trkpt>
      <trkpt lat="46.33719" lon="2.45316">
        <ele>402.45</ele>
        <time>2014-12-24T13:35:40Z</time>
      </trkpt>
      <trkpt lat="46.33711" lon="2.45338">
        <ele>401.01</ele>
        <time>2014-12-24T13:35:54Z</time>
      </trkpt>
      <trkpt lat="46.33697" lon="2.45348">
        <ele>399.57</ele>
        <time>2014-12-24T13:36:11Z</time>
      </trkpt>
      <trkpt lat="46.33689" lon="2.4535">
        <ele>399.08</ele>
        <time>2014-12-24T13:36:45Z</time>
      </trkpt>
      <trkpt lat="46.33677" lon="2.45345">
        <ele>398.12</ele>
        <time>2014-12-24T13:36:56Z</time>
      </trkpt>
      <trkpt lat="46.33666" lon="2.45342">
        <ele>397.64</ele>
        <time>2014-12-24T13:37:06Z</time>
      </trkpt>
      <trkpt lat="46.33649" lon="2.45337">
        <ele>395.24</ele>
        <time>2014-12-24T13:37:24Z</time>
      </trkpt>
      <trkpt lat="46.33634" lon="2.45334">
        <ele>392.84</ele>
        <time>2014-12-24T13:37:39Z</time>
      </trkpt>
      <trkpt lat="46.33618" lon="2.45331">
        <ele>391.39</ele>
        <time>2014-12-24T13:37:51Z</time>
      </trkpt>
      <trkpt lat="46.33596" lon="2.45323">
        <ele>389.95</ele>
        <time>2014-12-24T13:38:06Z</time>
      </trkpt>
      <trkpt lat="46.33577" lon="2.4531">
        <ele>388.03</ele>
        <time>2014-12-24T13:38:21Z</time>
      </trkpt>
      <trkpt lat="46.33563" lon="2.45301">
        <ele>386.59</ele>
        <time>2014-12-24T13:38:33Z</time>
      </trkpt>
      <trkpt lat="46.33542" lon="2.45294">
        <ele>386.11</ele>
        <time>2014-12-24T13:38:50Z</time>
      </trkpt>
      <trkpt lat="46.33529" lon="2.45284">
        <ele>385.63</ele>
        <time>2014-12-24T13:39:04Z</time>
      </trkpt>
      <trkpt lat="46.33515" lon="2.4527">
        <ele>385.63</ele>
        <time>2014-12-24T13:39:18Z</time>
      </trkpt>
      <trkpt lat="46.33498" lon="2.45257">
        <ele>385.63</ele>
        <time>2014-12-24T13:39:33Z</time>
      </trkpt>
      <trkpt lat="46.33481" lon="2.45246">
        <ele>387.55</ele>
        <time>2014-12-24T13:39:48Z</time>
      </trkpt>
      <trkpt lat="46.33461" lon="2.45238">
        <ele>388.51</ele>
        <time>2014-12-24T13:40:04Z</time>
      </trkpt>
      <trkpt lat="46.33452" lon="2.45234">
        <ele>389.47</ele>
        <time>2014-12-24T13:40:14Z</time>
      </trkpt>
      <trkpt lat="46.33437" lon="2.45225">
        <ele>389.47</ele>
        <time>2014-12-24T13:40:27Z</time>
      </trkpt>
      <trkpt lat="46.33417" lon="2.45216">
        <ele>389.95</ele>
        <time>2014-12-24T13:40:42Z</time>
      </trkpt>
      <trkpt lat="46.33401" lon="2.45209">
        <ele>390.91</ele>
        <time>2014-12-24T13:40:56Z</time>
      </trkpt>
      <trkpt lat="46.33386" lon="2.45207">
        <ele>391.87</ele>
        <time>2014-12-24T13:41:10Z</time>
      </trkpt>
      <trkpt lat="46.33372" lon="2.45211">
        <ele>393.32</ele>
        <time>2014-12-24T13:41:26Z</time>
      </trkpt>
      <trkpt lat="46.33362" lon="2.45216">
        <ele>394.76</ele>
        <time>2014-12-24T13:41:39Z</time>
      </trkpt>
      <trkpt lat="46.33352" lon="2.45229">
        <ele>396.2</ele>
        <time>2014-12-24T13:41:53Z</time>
      </trkpt>
      <trkpt lat="46.33342" lon="2.45247">
        <ele>397.64</ele>
        <time>2014-12-24T13:42:08Z</time>
      </trkpt>
      <trkpt lat="46.33333" lon="2.45262">
        <ele>399.57</ele>
        <time>2014-12-24T13:42:20Z</time>
      </trkpt>
      <trkpt lat="46.33324" lon="2.45274">
        <ele>401.01</ele>
        <time>2014-12-24T13:42:31Z</time>
      </trkpt>
      <trkpt lat="46.33316" lon="2.45288">
        <ele>401.97</ele>
        <time>2014-12-24T13:42:43Z</time>
      </trkpt>
      <trkpt lat="46.33306" lon="2.45303">
        <ele>402.93</ele>
        <time>2014-12-24T13:42:56Z</time>
      </trkpt>
      <trkpt lat="46.33299" lon="2.45314">
        <ele>403.89</ele>
        <time>2014-12-24T13:43:07Z</time>
      </trkpt>
      <trkpt lat="46.33288" lon="2.45328">
        <ele>403.89</ele>
        <time>2014-12-24T13:43:20Z</time>
      </trkpt>
      <trkpt lat="46.33277" lon="2.4534">
        <ele>405.33</ele>
        <time>2014-12-24T13:43:32Z</time>
      </trkpt>
      <trkpt lat="46.33268" lon="2.45349">
        <ele>405.33</ele>
        <time>2014-12-24T13:43:43Z</time>
      </trkpt>
      <trkpt lat="46.3326" lon="2.4536">
        <ele>405.33</ele>
        <time>2014-12-24T13:43:59Z</time>
      </trkpt>
      <trkpt lat="46.33246" lon="2.45375">
        <ele>405.33</ele>
        <time>2014-12-24T13:44:13Z</time>
      </trkpt>
      <trkpt lat="46.33232" lon="2.4539">
        <ele>406.29</ele>
        <time>2014-12-24T13:44:27Z</time>
      </trkpt>
      <trkpt lat="46.33215" lon="2.45406">
        <ele>406.29</ele>
        <time>2014-12-24T13:44:44Z</time>
      </trkpt>
      <trkpt lat="46.33198" lon="2.45421">
        <ele>406.77</ele>
        <time>2014-12-24T13:45:00Z</time>
      </trkpt>
      <trkpt lat="46.33183" lon="2.45434">
        <ele>407.26</ele>
        <time>2014-12-24T13:45:14Z</time>
      </trkpt>
      <trkpt lat="46.33166" lon="2.45448">
        <ele>407.74</ele>
        <time>2014-12-24T13:45:29Z</time>
      </trkpt>
      <trkpt lat="46.33158" lon="2.45455">
        <ele>407.74</ele>
        <time>2014-12-24T13:45:42Z</time>
      </trkpt>
      <trkpt lat="46.33151" lon="2.45471">
        <ele>408.22</ele>
        <time>2014-12-24T13:45:53Z</time>
      </trkpt>
      <trkpt lat="46.33157" lon="2.45485">
        <ele>409.18</ele>
        <time>2014-12-24T13:46:26Z</time>
      </trkpt>
      <trkpt lat="46.33142" lon="2.45498">
        <ele>407.74</ele>
        <time>2014-12-24T13:46:56Z</time>
      </trkpt>
      <trkpt lat="46.33134" lon="2.45504">
        <ele>408.7</ele>
        <time>2014-12-24T13:47:05Z</time>
      </trkpt>
      <trkpt lat="46.33122" lon="2.45511">
        <ele>409.18</ele>
        <time>2014-12-24T13:47:17Z</time>
      </trkpt>
      <trkpt lat="46.33108" lon="2.45517">
        <ele>409.18</ele>
        <time>2014-12-24T13:47:31Z</time>
      </trkpt>
      <trkpt lat="46.33086" lon="2.45524">
        <ele>409.18</ele>
        <time>2014-12-24T13:47:47Z</time>
      </trkpt>
      <trkpt lat="46.33067" lon="2.4553">
        <ele>408.22</ele>
        <time>2014-12-24T13:48:02Z</time>
      </trkpt>
      <trkpt lat="46.3305" lon="2.45535">
        <ele>407.26</ele>
        <time>2014-12-24T13:48:16Z</time>
      </trkpt>
      <trkpt lat="46.33035" lon="2.45541">
        <ele>406.29</ele>
        <time>2014-12-24T13:48:29Z</time>
      </trkpt>
      <trkpt lat="46.33022" lon="2.45547">
        <ele>405.33</ele>
        <time>2014-12-24T13:48:41Z</time>
      </trkpt>
      <trkpt lat="46.33008" lon="2.45551">
        <ele>404.37</ele>
        <time>2014-12-24T13:48:53Z</time>
      </trkpt>
      <trkpt lat="46.3299" lon="2.45556">
        <ele>403.41</ele>
        <time>2014-12-24T13:49:07Z</time>
      </trkpt>
      <trkpt lat="46.32978" lon="2.45561">
        <ele>402.93</ele>
        <time>2014-12-24T13:49:18Z</time>
      </trkpt>
      <trkpt lat="46.32955" lon="2.45567">
        <ele>402.45</ele>
        <time>2014-12-24T13:49:35Z</time>
      </trkpt>
      <trkpt lat="46.3293" lon="2.45573">
        <ele>400.53</ele>
        <time>2014-12-24T13:49:51Z</time>
      </trkpt>
      <trkpt lat="46.32913" lon="2.45578">
        <ele>400.05</ele>
        <time>2014-12-24T13:50:05Z</time>
      </trkpt>
      <trkpt lat="46.32893" lon="2.45582">
        <ele>398.6</ele>
        <time>2014-12-24T13:50:21Z</time>
      </trkpt>
      <trkpt lat="46.32874" lon="2.45583">
        <ele>397.64</ele>
        <time>2014-12-24T13:50:35Z</time>
      </trkpt>
      <trkpt lat="46.32862" lon="2.45581">
        <ele>397.16</ele>
        <time>2014-12-24T13:50:47Z</time>
      </trkpt>
      <trkpt lat="46.32849" lon="2.45585">
        <ele>396.68</ele>
        <time>2014-12-24T13:51:21Z</time>
      </trkpt>
      <trkpt lat="46.32831" lon="2.45585">
        <ele>396.2</ele>
        <time>2014-12-24T13:51:38Z</time>
      </trkpt>
      <trkpt lat="46.32817" lon="2.45586">
        <ele>395.72</ele>
        <time>2014-12-24T13:51:52Z</time>
      </trkpt>
      <trkpt lat="46.32804" lon="2.45587">
        <ele>394.76</ele>
        <time>2014-12-24T13:52:06Z</time>
      </trkpt>
      <trkpt lat="46.32787" lon="2.45589">
        <ele>394.28</ele>
        <time>2014-12-24T13:52:20Z</time>
      </trkpt>
      <trkpt lat="46.32775" lon="2.45594">
        <ele>393.32</ele>
        <time>2014-12-24T13:52:31Z</time>
      </trkpt>
      <trkpt lat="46.32761" lon="2.45598">
        <ele>392.36</ele>
        <time>2014-12-24T13:52:43Z</time>
      </trkpt>
      <trkpt lat="46.32744" lon="2.45604">
        <ele>389.95</ele>
        <time>2014-12-24T13:52:58Z</time>
      </trkpt>
      <trkpt lat="46.3273" lon="2.45605">
        <ele>388.99</ele>
        <time>2014-12-24T13:53:11Z</time>
      </trkpt>
      <trkpt lat="46.3272" lon="2.45602">
        <ele>388.51</ele>
        <time>2014-12-24T13:53:19Z</time>
      </trkpt>
      <trkpt lat="46.32706" lon="2.45596">
        <ele>388.03</ele>
        <time>2014-12-24T13:53:32Z</time>
      </trkpt>
      <trkpt lat="46.32685" lon="2.45589">
        <ele>388.03</ele>
        <time>2014-12-24T13:53:55Z</time>
      </trkpt>
      <trkpt lat="46.32672" lon="2.4559">
        <ele>386.59</ele>
        <time>2014-12-24T13:54:07Z</time>
      </trkpt>
      <trkpt lat="46.32656" lon="2.45593">
        <ele>386.11</ele>
        <time>2014-12-24T13:54:20Z</time>
      </trkpt>
      <trkpt lat="46.32639" lon="2.45603">
        <ele>383.7</ele>
        <time>2014-12-24T13:54:35Z</time>
      </trkpt>
      <trkpt lat="46.32622" lon="2.45617">
        <ele>382.26</ele>
        <time>2014-12-24T13:54:51Z</time>
      </trkpt>
      <trkpt lat="46.3261" lon="2.45626">
        <ele>380.34</ele>
        <time>2014-12-24T13:55:02Z</time>
      </trkpt>
      <trkpt lat="46.32596" lon="2.45635">
        <ele>378.9</ele>
        <time>2014-12-24T13:55:15Z</time>
      </trkpt>
      <trkpt lat="46.32584" lon="2.45646">
        <ele>378.42</ele>
        <time>2014-12-24T13:55:29Z</time>
      </trkpt>
      <trkpt lat="46.32577" lon="2.45653">
        <ele>377.45</ele>
        <time>2014-12-24T13:56:18Z</time>
      </trkpt>
      <trkpt lat="46.32579" lon="2.45664">
        <ele>377.45</ele>
        <time>2014-12-24T13:57:43Z</time>
      </trkpt>
      <trkpt lat="46.3257" lon="2.45661">
        <ele>377.94</ele>
        <time>2014-12-24T13:58:45Z</time>
      </trkpt>
      <trkpt lat="46.3257" lon="2.45677">
        <ele>379.38</ele>
        <time>2014-12-24T13:59:16Z</time>
      </trkpt>
      <trkpt lat="46.3257" lon="2.4569">
        <ele>380.34</ele>
        <time>2014-12-24T13:59:27Z</time>
      </trkpt>
      <trkpt lat="46.32579" lon="2.4572">
        <ele>380.34</ele>
        <time>2014-12-24T13:59:47Z</time>
      </trkpt>
      <trkpt lat="46.32582" lon="2.45739">
        <ele>378.9</ele>
        <time>2014-12-24T13:59:59Z</time>
      </trkpt>
      <trkpt lat="46.32585" lon="2.45759">
        <ele>378.9</ele>
        <time>2014-12-24T14:00:13Z</time>
      </trkpt>
      <trkpt lat="46.32591" lon="2.45777">
        <ele>378.9</ele>
        <time>2014-12-24T14:00:26Z</time>
      </trkpt>
      <trkpt lat="46.32594" lon="2.45791">
        <ele>378.9</ele>
        <time>2014-12-24T14:00:36Z</time>
      </trkpt>
      <trkpt lat="46.32597" lon="2.45806">
        <ele>378.9</ele>
        <time>2014-12-24T14:00:48Z</time>
      </trkpt>
      <trkpt lat="46.32595" lon="2.45827">
        <ele>380.82</ele>
        <time>2014-12-24T14:01:02Z</time>
      </trkpt>
      <trkpt lat="46.32578" lon="2.45837">
        <ele>380.82</ele>
        <time>2014-12-24T14:01:27Z</time>
      </trkpt>
      <trkpt lat="46.32559" lon="2.45837">
        <ele>382.26</ele>
        <time>2014-12-24T14:01:49Z</time>
      </trkpt>
      <trkpt lat="46.32537" lon="2.45833">
        <ele>383.7</ele>
        <time>2014-12-24T14:02:09Z</time>
      </trkpt>
      <trkpt lat="46.32519" lon="2.45829">
        <ele>384.18</ele>
        <time>2014-12-24T14:02:24Z</time>
      </trkpt>
      <trkpt lat="46.32504" lon="2.45826">
        <ele>385.15</ele>
        <time>2014-12-24T14:02:38Z</time>
      </trkpt>
      <trkpt lat="46.32492" lon="2.45821">
        <ele>385.63</ele>
        <time>2014-12-24T14:02:51Z</time>
      </trkpt>
      <trkpt lat="46.32482" lon="2.45817">
        <ele>386.11</ele>
        <time>2014-12-24T14:03:02Z</time>
      </trkpt>
      <trkpt lat="46.32467" lon="2.45812">
        <ele>387.07</ele>
        <time>2014-12-24T14:03:14Z</time>
      </trkpt>
      <trkpt lat="46.32454" lon="2.45808">
        <ele>387.55</ele>
        <time>2014-12-24T14:03:25Z</time>
      </trkpt>
      <trkpt lat="46.32433" lon="2.45802">
        <ele>388.51</ele>
        <time>2014-12-24T14:03:42Z</time>
      </trkpt>
      <trkpt lat="46.32416" lon="2.45799">
        <ele>389.47</ele>
        <time>2014-12-24T14:04:10Z</time>
      </trkpt>
      <trkpt lat="46.32398" lon="2.45798">
        <ele>390.43</ele>
        <time>2014-12-24T14:04:26Z</time>
      </trkpt>
      <trkpt lat="46.32385" lon="2.45796">
        <ele>391.87</ele>
        <time>2014-12-24T14:04:40Z</time>
      </trkpt>
      <trkpt lat="46.32373" lon="2.45796">
        <ele>391.87</ele>
        <time>2014-12-24T14:05:02Z</time>
      </trkpt>
      <trkpt lat="46.32354" lon="2.45797">
        <ele>394.28</ele>
        <time>2014-12-24T14:05:37Z</time>
      </trkpt>
      <trkpt lat="46.32342" lon="2.458">
        <ele>395.24</ele>
        <time>2014-12-24T14:05:48Z</time>
      </trkpt>
      <trkpt lat="46.32326" lon="2.45799">
        <ele>396.2</ele>
        <time>2014-12-24T14:06:02Z</time>
      </trkpt>
      <trkpt lat="46.32314" lon="2.45795">
        <ele>397.64</ele>
        <time>2014-12-24T14:06:15Z</time>
      </trkpt>
      <trkpt lat="46.32295" lon="2.45786">
        <ele>398.12</ele>
        <time>2014-12-24T14:06:32Z</time>
      </trkpt>
      <trkpt lat="46.32288" lon="2.4576">
        <ele>399.57</ele>
        <time>2014-12-24T14:06:47Z</time>
      </trkpt>
      <trkpt lat="46.32283" lon="2.45726">
        <ele>400.53</ele>
        <time>2014-12-24T14:07:08Z</time>
      </trkpt>
      <trkpt lat="46.32271" lon="2.4569">
        <ele>399.57</ele>
        <time>2014-12-24T14:07:35Z</time>
      </trkpt>
      <trkpt lat="46.3226" lon="2.45686">
        <ele>399.57</ele>
        <time>2014-12-24T14:07:47Z</time>
      </trkpt>
      <trkpt lat="46.32247" lon="2.45694">
        <ele>399.08</ele>
        <time>2014-12-24T14:08:01Z</time>
      </trkpt>
      <trkpt lat="46.32236" lon="2.457">
        <ele>398.12</ele>
        <time>2014-12-24T14:08:13Z</time>
      </trkpt>
      <trkpt lat="46.32224" lon="2.45708">
        <ele>397.16</ele>
        <time>2014-12-24T14:08:26Z</time>
      </trkpt>
      <trkpt lat="46.32207" lon="2.45715">
        <ele>395.72</ele>
        <time>2014-12-24T14:08:51Z</time>
      </trkpt>
      <trkpt lat="46.3219" lon="2.45724">
        <ele>394.76</ele>
        <time>2014-12-24T14:09:05Z</time>
      </trkpt>
      <trkpt lat="46.32174" lon="2.45729">
        <ele>394.28</ele>
        <time>2014-12-24T14:09:20Z</time>
      </trkpt>
      <trkpt lat="46.32161" lon="2.45736">
        <ele>394.28</ele>
        <time>2014-12-24T14:09:33Z</time>
      </trkpt>
      <trkpt lat="46.32148" lon="2.45745">
        <ele>394.28</ele>
        <time>2014-12-24T14:09:45Z</time>
      </trkpt>
      <trkpt lat="46.32132" lon="2.4577">
        <ele>394.28</ele>
        <time>2014-12-24T14:10:05Z</time>
      </trkpt>
      <trkpt lat="46.32118" lon="2.45787">
        <ele>394.28</ele>
        <time>2014-12-24T14:10:18Z</time>
      </trkpt>
      <trkpt lat="46.32103" lon="2.45796">
        <ele>394.28</ele>
        <time>2014-12-24T14:10:33Z</time>
      </trkpt>
      <trkpt lat="46.32087" lon="2.45807">
        <ele>394.28</ele>
        <time>2014-12-24T14:10:48Z</time>
      </trkpt>
      <trkpt lat="46.32074" lon="2.45814">
        <ele>394.28</ele>
        <time>2014-12-24T14:11:01Z</time>
      </trkpt>
      <trkpt lat="46.3206" lon="2.45821">
        <ele>394.28</ele>
        <time>2014-12-24T14:11:13Z</time>
      </trkpt>
      <trkpt lat="46.32045" lon="2.45832">
        <ele>396.2</ele>
        <time>2014-12-24T14:11:29Z</time>
      </trkpt>
      <trkpt lat="46.32045" lon="2.45837">
        <ele>396.2</ele>
        <time>2014-12-24T14:12:00Z</time>
      </trkpt>
      <trkpt lat="46.3205" lon="2.45856">
        <ele>396.2</ele>
        <time>2014-12-24T14:12:29Z</time>
      </trkpt>
      <trkpt lat="46.32053" lon="2.45872">
        <ele>396.2</ele>
        <time>2014-12-24T14:12:46Z</time>
      </trkpt>
      <trkpt lat="46.3206" lon="2.45902">
        <ele>397.16</ele>
        <time>2014-12-24T14:13:21Z</time>
      </trkpt>
      <trkpt lat="46.32064" lon="2.45917">
        <ele>397.16</ele>
        <time>2014-12-24T14:13:29Z</time>
      </trkpt>
      <trkpt lat="46.32072" lon="2.45943">
        <ele>397.16</ele>
        <time>2014-12-24T14:13:43Z</time>
      </trkpt>
      <trkpt lat="46.3208" lon="2.45975">
        <ele>397.16</ele>
        <time>2014-12-24T14:13:59Z</time>
      </trkpt>
      <trkpt lat="46.32085" lon="2.45998">
        <ele>397.64</ele>
        <time>2014-12-24T14:14:13Z</time>
      </trkpt>
      <trkpt lat="46.32091" lon="2.46025">
        <ele>398.12</ele>
        <time>2014-12-24T14:14:29Z</time>
      </trkpt>
      <trkpt lat="46.32097" lon="2.46045">
        <ele>398.6</ele>
        <time>2014-12-24T14:14:42Z</time>
      </trkpt>
      <trkpt lat="46.32102" lon="2.46063">
        <ele>399.08</ele>
        <time>2014-12-24T14:14:54Z</time>
      </trkpt>
      <trkpt lat="46.32108" lon="2.46086">
        <ele>399.57</ele>
        <time>2014-12-24T14:15:07Z</time>
      </trkpt>
      <trkpt lat="46.32115" lon="2.46111">
        <ele>399.08</ele>
        <time>2014-12-24T14:15:21Z</time>
      </trkpt>
      <trkpt lat="46.3212" lon="2.46129">
        <ele>399.08</ele>
        <time>2014-12-24T14:15:32Z</time>
      </trkpt>
      <trkpt lat="46.32125" lon="2.46159">
        <ele>399.57</ele>
        <time>2014-12-24T14:15:48Z</time>
      </trkpt>
      <trkpt lat="46.3213" lon="2.46185">
        <ele>400.05</ele>
        <time>2014-12-24T14:16:02Z</time>
      </trkpt>
      <trkpt lat="46.32135" lon="2.46209">
        <ele>399.57</ele>
        <time>2014-12-24T14:16:16Z</time>
      </trkpt>
      <trkpt lat="46.32138" lon="2.46227">
        <ele>399.57</ele>
        <time>2014-12-24T14:16:29Z</time>
      </trkpt>
      <trkpt lat="46.3214" lon="2.46252">
        <ele>399.57</ele>
        <time>2014-12-24T14:16:41Z</time>
      </trkpt>
      <trkpt lat="46.32141" lon="2.46283">
        <ele>398.12</ele>
        <time>2014-12-24T14:16:57Z</time>
      </trkpt>
      <trkpt lat="46.3214" lon="2.463">
        <ele>397.64</ele>
        <time>2014-12-24T14:17:07Z</time>
      </trkpt>
      <trkpt lat="46.32143" lon="2.46335">
        <ele>397.16</ele>
        <time>2014-12-24T14:17:27Z</time>
      </trkpt>
      <trkpt lat="46.32142" lon="2.4636">
        <ele>397.16</ele>
        <time>2014-12-24T14:17:40Z</time>
      </trkpt>
      <trkpt lat="46.32138" lon="2.4639">
        <ele>396.2</ele>
        <time>2014-12-24T14:18:45Z</time>
      </trkpt>
      <trkpt lat="46.32137" lon="2.46414">
        <ele>396.2</ele>
        <time>2014-12-24T14:19:00Z</time>
      </trkpt>
      <trkpt lat="46.32138" lon="2.46447">
        <ele>396.2</ele>
        <time>2014-12-24T14:19:20Z</time>
      </trkpt>
      <trkpt lat="46.3214" lon="2.46466">
        <ele>396.2</ele>
        <time>2014-12-24T14:19:31Z</time>
      </trkpt>
      <trkpt lat="46.32139" lon="2.46491">
        <ele>396.2</ele>
        <time>2014-12-24T14:19:46Z</time>
      </trkpt>
      <trkpt lat="46.32139" lon="2.46513">
        <ele>397.16</ele>
        <time>2014-12-24T14:19:59Z</time>
      </trkpt>
      <trkpt lat="46.3214" lon="2.46529">
        <ele>397.64</ele>
        <time>2014-12-24T14:20:11Z</time>
      </trkpt>
      <trkpt lat="46.3214" lon="2.4656">
        <ele>398.12</ele>
        <time>2014-12-24T14:20:36Z</time>
      </trkpt>
      <trkpt lat="46.32145" lon="2.46587">
        <ele>399.08</ele>
        <time>2014-12-24T14:20:51Z</time>
      </trkpt>
      <trkpt lat="46.32148" lon="2.46611">
        <ele>399.08</ele>
        <time>2014-12-24T14:21:04Z</time>
      </trkpt>
      <trkpt lat="46.32148" lon="2.46629">
        <ele>400.05</ele>
        <time>2014-12-24T14:21:15Z</time>
      </trkpt>
      <trkpt lat="46.32145" lon="2.46651">
        <ele>401.01</ele>
        <time>2014-12-24T14:21:27Z</time>
      </trkpt>
      <trkpt lat="46.32136" lon="2.46668">
        <ele>401.97</ele>
        <time>2014-12-24T14:21:40Z</time>
      </trkpt>
      <trkpt lat="46.32125" lon="2.46694">
        <ele>401.97</ele>
        <time>2014-12-24T14:21:56Z</time>
      </trkpt>
      <trkpt lat="46.32118" lon="2.46708">
        <ele>402.93</ele>
        <time>2014-12-24T14:22:10Z</time>
      </trkpt>
      <trkpt lat="46.32108" lon="2.46734">
        <ele>402.45</ele>
        <time>2014-12-24T14:22:31Z</time>
      </trkpt>
      <trkpt lat="46.32101" lon="2.46762">
        <ele>402.45</ele>
        <time>2014-12-24T14:22:47Z</time>
      </trkpt>
      <trkpt lat="46.32097" lon="2.4679">
        <ele>402.45</ele>
        <time>2014-12-24T14:23:02Z</time>
      </trkpt>
      <trkpt lat="46.32097" lon="2.46806">
        <ele>402.45</ele>
        <time>2014-12-24T14:23:11Z</time>
      </trkpt>
      <trkpt lat="46.32103" lon="2.46834">
        <ele>402.93</ele>
        <time>2014-12-24T14:23:27Z</time>
      </trkpt>
      <trkpt lat="46.32108" lon="2.46856">
        <ele>402.93</ele>
        <time>2014-12-24T14:23:41Z</time>
      </trkpt>
      <trkpt lat="46.32111" lon="2.46875">
        <ele>403.89</ele>
        <time>2014-12-24T14:23:54Z</time>
      </trkpt>
      <trkpt lat="46.32115" lon="2.469">
        <ele>403.89</ele>
        <time>2014-12-24T14:24:09Z</time>
      </trkpt>
      <trkpt lat="46.3212" lon="2.46924">
        <ele>404.37</ele>
        <time>2014-12-24T14:24:22Z</time>
      </trkpt>
      <trkpt lat="46.32128" lon="2.46951">
        <ele>405.33</ele>
        <time>2014-12-24T14:24:38Z</time>
      </trkpt>
      <trkpt lat="46.32134" lon="2.46966">
        <ele>405.33</ele>
        <time>2014-12-24T14:24:48Z</time>
      </trkpt>
      <trkpt lat="46.32139" lon="2.46979">
        <ele>406.29</ele>
        <time>2014-12-24T14:24:56Z</time>
      </trkpt>
      <trkpt lat="46.32148" lon="2.46995">
        <ele>407.74</ele>
        <time>2014-12-24T14:25:09Z</time>
      </trkpt>
      <trkpt lat="46.3216" lon="2.47021">
        <ele>408.7</ele>
        <time>2014-12-24T14:25:32Z</time>
      </trkpt>
      <trkpt lat="46.32168" lon="2.47041">
        <ele>409.66</ele>
        <time>2014-12-24T14:25:46Z</time>
      </trkpt>
      <trkpt lat="46.32174" lon="2.47063">
        <ele>410.62</ele>
        <time>2014-12-24T14:26:00Z</time>
      </trkpt>
      <trkpt lat="46.32177" lon="2.47076">
        <ele>412.06</ele>
        <time>2014-12-24T14:26:11Z</time>
      </trkpt>
      <trkpt lat="46.32183" lon="2.47092">
        <ele>413.02</ele>
        <time>2014-12-24T14:26:23Z</time>
      </trkpt>
      <trkpt lat="46.3219" lon="2.47116">
        <ele>413.98</ele>
        <time>2014-12-24T14:26:38Z</time>
      </trkpt>
      <trkpt lat="46.32197" lon="2.47139">
        <ele>414.95</ele>
        <time>2014-12-24T14:26:52Z</time>
      </trkpt>
      <trkpt lat="46.32206" lon="2.47173">
        <ele>416.39</ele>
        <time>2014-12-24T14:27:13Z</time>
      </trkpt>
      <trkpt lat="46.32212" lon="2.47197">
        <ele>416.87</ele>
        <time>2014-12-24T14:27:27Z</time>
      </trkpt>
      <trkpt lat="46.32216" lon="2.47221">
        <ele>417.35</ele>
        <time>2014-12-24T14:27:41Z</time>
      </trkpt>
      <trkpt lat="46.32219" lon="2.47243">
        <ele>418.31</ele>
        <time>2014-12-24T14:27:54Z</time>
      </trkpt>
      <trkpt lat="46.32222" lon="2.47257">
        <ele>418.31</ele>
        <time>2014-12-24T14:28:03Z</time>
      </trkpt>
      <trkpt lat="46.32226" lon="2.47282">
        <ele>419.27</ele>
        <time>2014-12-24T14:28:17Z</time>
      </trkpt>
      <trkpt lat="46.3223" lon="2.47303">
        <ele>419.75</ele>
        <time>2014-12-24T14:28:30Z</time>
      </trkpt>
      <trkpt lat="46.32233" lon="2.47331">
        <ele>420.23</ele>
        <time>2014-12-24T14:28:44Z</time>
      </trkpt>
      <trkpt lat="46.32236" lon="2.47352">
        <ele>420.23</ele>
        <time>2014-12-24T14:28:55Z</time>
      </trkpt>
      <trkpt lat="46.32237" lon="2.47376">
        <ele>420.23</ele>
        <time>2014-12-24T14:29:08Z</time>
      </trkpt>
      <trkpt lat="46.32239" lon="2.47391">
        <ele>420.23</ele>
        <time>2014-12-24T14:29:27Z</time>
      </trkpt>
      <trkpt lat="46.3224" lon="2.47414">
        <ele>420.71</ele>
        <time>2014-12-24T14:29:40Z</time>
      </trkpt>
      <trkpt lat="46.32242" lon="2.4744">
        <ele>420.71</ele>
        <time>2014-12-24T14:29:55Z</time>
      </trkpt>
      <trkpt lat="46.32243" lon="2.47464">
        <ele>421.19</ele>
        <time>2014-12-24T14:30:10Z</time>
      </trkpt>
      <trkpt lat="46.32245" lon="2.47491">
        <ele>421.68</ele>
        <time>2014-12-24T14:30:25Z</time>
      </trkpt>
      <trkpt lat="46.32249" lon="2.47519">
        <ele>422.16</ele>
        <time>2014-12-24T14:30:40Z</time>
      </trkpt>
      <trkpt lat="46.32254" lon="2.47546">
        <ele>422.16</ele>
        <time>2014-12-24T14:30:55Z</time>
      </trkpt>
      <trkpt lat="46.32261" lon="2.47575">
        <ele>423.12</ele>
        <time>2014-12-24T14:31:11Z</time>
      </trkpt>
      <trkpt lat="46.32267" lon="2.47602">
        <ele>423.6</ele>
        <time>2014-12-24T14:31:26Z</time>
      </trkpt>
      <trkpt lat="46.32273" lon="2.47626">
        <ele>423.6</ele>
        <time>2014-12-24T14:31:41Z</time>
      </trkpt>
      <trkpt lat="46.32279" lon="2.47654">
        <ele>424.08</ele>
        <time>2014-12-24T14:31:56Z</time>
      </trkpt>
      <trkpt lat="46.32284" lon="2.47679">
        <ele>424.08</ele>
        <time>2014-12-24T14:32:11Z</time>
      </trkpt>
      <trkpt lat="46.3229" lon="2.47705">
        <ele>424.08</ele>
        <time>2014-12-24T14:32:26Z</time>
      </trkpt>
      <trkpt lat="46.32294" lon="2.47722">
        <ele>424.08</ele>
        <time>2014-12-24T14:32:40Z</time>
      </trkpt>
      <trkpt lat="46.32308" lon="2.47735">
        <ele>424.56</ele>
        <time>2014-12-24T14:33:06Z</time>
      </trkpt>
      <trkpt lat="46.32323" lon="2.47745">
        <ele>424.56</ele>
        <time>2014-12-24T14:33:30Z</time>
      </trkpt>
      <trkpt lat="46.3234" lon="2.4776">
        <ele>424.56</ele>
        <time>2014-12-24T14:33:56Z</time>
      </trkpt>
      <trkpt lat="46.32353" lon="2.4777">
        <ele>424.56</ele>
        <time>2014-12-24T14:34:12Z</time>
      </trkpt>
      <trkpt lat="46.32368" lon="2.47783">
        <ele>424.56</ele>
        <time>2014-12-24T14:34:54Z</time>
      </trkpt>
      <trkpt lat="46.32384" lon="2.47795">
        <ele>424.56</ele>
        <time>2014-12-24T14:35:10Z</time>
      </trkpt>
      <trkpt lat="46.32392" lon="2.47802">
        <ele>423.6</ele>
        <time>2014-12-24T14:35:46Z</time>
      </trkpt>
      <trkpt lat="46.32411" lon="2.47814">
        <ele>422.64</ele>
        <time>2014-12-24T14:36:03Z</time>
      </trkpt>
      <trkpt lat="46.3243" lon="2.47826">
        <ele>422.64</ele>
        <time>2014-12-24T14:36:20Z</time>
      </trkpt>
      <trkpt lat="46.32448" lon="2.47835">
        <ele>421.68</ele>
        <time>2014-12-24T14:36:35Z</time>
      </trkpt>
      <trkpt lat="46.3247" lon="2.47844">
        <ele>420.71</ele>
        <time>2014-12-24T14:36:52Z</time>
      </trkpt>
      <trkpt lat="46.3249" lon="2.47851">
        <ele>420.71</ele>
        <time>2014-12-24T14:37:08Z</time>
      </trkpt>
      <trkpt lat="46.32509" lon="2.47857">
        <ele>419.75</ele>
        <time>2014-12-24T14:37:23Z</time>
      </trkpt>
      <trkpt lat="46.32525" lon="2.47861">
        <ele>419.27</ele>
        <time>2014-12-24T14:37:38Z</time>
      </trkpt>
      <trkpt lat="46.32551" lon="2.47868">
        <ele>418.31</ele>
        <time>2014-12-24T14:38:04Z</time>
      </trkpt>
      <trkpt lat="46.3257" lon="2.47873">
        <ele>417.35</ele>
        <time>2014-12-24T14:38:19Z</time>
      </trkpt>
      <trkpt lat="46.32593" lon="2.4788">
        <ele>416.39</ele>
        <time>2014-12-24T14:38:37Z</time>
      </trkpt>
      <trkpt lat="46.32612" lon="2.47886">
        <ele>415.91</ele>
        <time>2014-12-24T14:38:51Z</time>
      </trkpt>
      <trkpt lat="46.32632" lon="2.47893">
        <ele>414.47</ele>
        <time>2014-12-24T14:39:08Z</time>
      </trkpt>
      <trkpt lat="46.32648" lon="2.47897">
        <ele>414.47</ele>
        <time>2014-12-24T14:39:20Z</time>
      </trkpt>
      <trkpt lat="46.32665" lon="2.47899">
        <ele>413.98</ele>
        <time>2014-12-24T14:39:35Z</time>
      </trkpt>
      <trkpt lat="46.3268" lon="2.47905">
        <ele>413.98</ele>
        <time>2014-12-24T14:39:48Z</time>
      </trkpt>
      <trkpt lat="46.327" lon="2.4791">
        <ele>413.5</ele>
        <time>2014-12-24T14:40:02Z</time>
      </trkpt>
      <trkpt lat="46.32718" lon="2.47916">
        <ele>411.58</ele>
        <time>2014-12-24T14:40:16Z</time>
      </trkpt>
      <trkpt lat="46.32739" lon="2.47925">
        <ele>411.1</ele>
        <time>2014-12-24T14:40:33Z</time>
      </trkpt>
      <trkpt lat="46.32757" lon="2.47934">
        <ele>410.14</ele>
        <time>2014-12-24T14:40:48Z</time>
      </trkpt>
      <trkpt lat="46.32778" lon="2.47943">
        <ele>410.14</ele>
        <time>2014-12-24T14:41:05Z</time>
      </trkpt>
      <trkpt lat="46.32796" lon="2.47946">
        <ele>410.14</ele>
        <time>2014-12-24T14:41:19Z</time>
      </trkpt>
      <trkpt lat="46.32818" lon="2.47947">
        <ele>409.66</ele>
        <time>2014-12-24T14:41:35Z</time>
      </trkpt>
      <trkpt lat="46.32839" lon="2.47948">
        <ele>409.18</ele>
        <time>2014-12-24T14:41:51Z</time>
      </trkpt>
      <trkpt lat="46.32857" lon="2.47947">
        <ele>409.18</ele>
        <time>2014-12-24T14:42:04Z</time>
      </trkpt>
      <trkpt lat="46.32875" lon="2.47942">
        <ele>408.7</ele>
        <time>2014-12-24T14:42:18Z</time>
      </trkpt>
      <trkpt lat="46.32894" lon="2.47936">
        <ele>410.14</ele>
        <time>2014-12-24T14:42:33Z</time>
      </trkpt>
      <trkpt lat="46.32911" lon="2.47928">
        <ele>410.14</ele>
        <time>2014-12-24T14:42:47Z</time>
      </trkpt>
      <trkpt lat="46.32931" lon="2.47921">
        <ele>410.62</ele>
        <time>2014-12-24T14:43:03Z</time>
      </trkpt>
      <trkpt lat="46.32947" lon="2.47914">
        <ele>410.62</ele>
        <time>2014-12-24T14:43:16Z</time>
      </trkpt>
      <trkpt lat="46.3296" lon="2.4791">
        <ele>410.62</ele>
        <time>2014-12-24T14:43:28Z</time>
      </trkpt>
      <trkpt lat="46.3297" lon="2.47908">
        <ele>409.18</ele>
        <time>2014-12-24T14:43:37Z</time>
      </trkpt>
      <trkpt lat="46.32985" lon="2.47907">
        <ele>408.7</ele>
        <time>2014-12-24T14:43:50Z</time>
      </trkpt>
      <trkpt lat="46.33007" lon="2.47899">
        <ele>407.74</ele>
        <time>2014-12-24T14:44:07Z</time>
      </trkpt>
      <trkpt lat="46.33023" lon="2.4789">
        <ele>405.33</ele>
        <time>2014-12-24T14:44:21Z</time>
      </trkpt>
      <trkpt lat="46.33041" lon="2.4788">
        <ele>403.41</ele>
        <time>2014-12-24T14:44:36Z</time>
      </trkpt>
      <trkpt lat="46.33061" lon="2.47872">
        <ele>401.49</ele>
        <time>2014-12-24T14:44:51Z</time>
      </trkpt>
      <trkpt lat="46.33081" lon="2.47865">
        <ele>400.53</ele>
        <time>2014-12-24T14:45:05Z</time>
      </trkpt>
      <trkpt lat="46.33095" lon="2.47861">
        <ele>399.57</ele>
        <time>2014-12-24T14:45:16Z</time>
      </trkpt>
      <trkpt lat="46.3311" lon="2.47854">
        <ele>398.6</ele>
        <time>2014-12-24T14:45:29Z</time>
      </trkpt>
      <trkpt lat="46.33126" lon="2.4785">
        <ele>397.16</ele>
        <time>2014-12-24T14:45:43Z</time>
      </trkpt>
      <trkpt lat="46.33146" lon="2.47847">
        <ele>395.24</ele>
        <time>2014-12-24T14:45:58Z</time>
      </trkpt>
      <trkpt lat="46.33163" lon="2.47843">
        <ele>394.76</ele>
        <time>2014-12-24T14:46:11Z</time>
      </trkpt>
      <trkpt lat="46.33177" lon="2.4784">
        <ele>393.8</ele>
        <time>2014-12-24T14:46:22Z</time>
      </trkpt>
      <trkpt lat="46.33198" lon="2.47838">
        <ele>392.84</ele>
        <time>2014-12-24T14:46:38Z</time>
      </trkpt>
      <trkpt lat="46.33216" lon="2.47837">
        <ele>391.87</ele>
        <time>2014-12-24T14:46:52Z</time>
      </trkpt>
      <trkpt lat="46.33237" lon="2.47834">
        <ele>390.91</ele>
        <time>2014-12-24T14:47:07Z</time>
      </trkpt>
      <trkpt lat="46.33257" lon="2.47832">
        <ele>390.43</ele>
        <time>2014-12-24T14:47:22Z</time>
      </trkpt>
      <trkpt lat="46.33277" lon="2.47833">
        <ele>389.95</ele>
        <time>2014-12-24T14:47:37Z</time>
      </trkpt>
      <trkpt lat="46.33286" lon="2.47835">
        <ele>389.47</ele>
        <time>2014-12-24T14:47:44Z</time>
      </trkpt>
      <trkpt lat="46.33307" lon="2.47841">
        <ele>388.51</ele>
        <time>2014-12-24T14:48:01Z</time>
      </trkpt>
      <trkpt lat="46.33328" lon="2.47849">
        <ele>388.51</ele>
        <time>2014-12-24T14:48:18Z</time>
      </trkpt>
      <trkpt lat="46.33344" lon="2.47856">
        <ele>387.55</ele>
        <time>2014-12-24T14:48:32Z</time>
      </trkpt>
      <trkpt lat="46.33362" lon="2.47865">
        <ele>386.59</ele>
        <time>2014-12-24T14:48:47Z</time>
      </trkpt>
      <trkpt lat="46.33375" lon="2.47872">
        <ele>386.11</ele>
        <time>2014-12-24T14:48:58Z</time>
      </trkpt>
      <trkpt lat="46.33391" lon="2.47877">
        <ele>384.66</ele>
        <time>2014-12-24T14:49:11Z</time>
      </trkpt>
      <trkpt lat="46.33408" lon="2.47884">
        <ele>383.7</ele>
        <time>2014-12-24T14:49:24Z</time>
      </trkpt>
      <trkpt lat="46.33417" lon="2.47889">
        <ele>383.7</ele>
        <time>2014-12-24T14:49:36Z</time>
      </trkpt>
      <trkpt lat="46.33433" lon="2.47895">
        <ele>382.74</ele>
        <time>2014-12-24T14:50:06Z</time>
      </trkpt>
      <trkpt lat="46.33442" lon="2.47899">
        <ele>382.74</ele>
        <time>2014-12-24T14:50:18Z</time>
      </trkpt>
      <trkpt lat="46.33452" lon="2.47893">
        <ele>382.74</ele>
        <time>2014-12-24T14:50:35Z</time>
      </trkpt>
    </trkseg>
  </trk>
</gpx>